sensor_id;sensor_type;location;lat;lon;timestamp;P1;durP1;ratioP1;P2;durP2;ratioP2
2406;SDS011;37709;53.480;9.688;2022-08-25T00:01:24;5.63;;;5.00;;
2406;SDS011;37709;53.480;9.688;2022-08-25T00:03:58;6.63;;;4.20;;
2406;SDS011;37709;53.480;9.688;2022-08-25T00:06:29;5.63;;;4.67;;
2406;SDS011;37709;53.480;9.688;2022-08-25T00:08:56;6.03;;;4.47;;
2406;SDS011;37709;53.480;9.688;2022-08-25T00:11:27;4.50;;;4.10;;
2406;SDS011;37709;53.480;9.688;2022-08-25T00:13:58;4.90;;;4.40;;
2406;SDS011;37709;53.480;9.688;2022-08-25T00:16:27;9.23;;;5.00;;
2406;SDS011;37709;53.480;9.688;2022-08-25T00:18:58;5.73;;;5.00;;
2406;SDS011;37709;53.480;9.688;2022-08-25T00:21:29;5.53;;;5.03;;
2406;SDS011;37709;53.480;9.688;2022-08-25T00:23:58;8.47;;;5.10;;
2406;SDS011;37709;53.480;9.688;2022-08-25T00:26:28;6.40;;;5.07;;
2406;SDS011;37709;53.480;9.688;2022-08-25T00:28:56;6.60;;;4.83;;
2406;SDS011;37709;53.480;9.688;2022-08-25T00:31:28;5.57;;;5.07;;
2406;SDS011;37709;53.480;9.688;2022-08-25T00:34:06;5.57;;;4.80;;
2406;SDS011;37709;53.480;9.688;2022-08-25T00:36:35;4.77;;;4.37;;
2406;SDS011;37709;53.480;9.688;2022-08-25T00:39:04;5.00;;;4.60;;
2406;SDS011;37709;53.480;9.688;2022-08-25T00:41:32;6.13;;;5.20;;
2406;SDS011;37709;53.480;9.688;2022-08-25T00:44:02;6.73;;;5.20;;
2406;SDS011;37709;53.480;9.688;2022-08-25T00:46:36;5.17;;;4.73;;
2406;SDS011;37709;53.480;9.688;2022-08-25T00:49:13;7.47;;;4.80;;
2406;SDS011;37709;53.480;9.688;2022-08-25T00:52:04;5.53;;;5.03;;
2406;SDS011;37709;53.480;9.688;2022-08-25T00:54:38;5.40;;;4.90;;
2406;SDS011;37709;53.480;9.688;2022-08-25T00:57:11;6.00;;;5.40;;
2406;SDS011;37709;53.480;9.688;2022-08-25T00:59:42;5.33;;;4.83;;
2406;SDS011;37709;53.480;9.688;2022-08-25T01:02:10;6.17;;;5.57;;
2406;SDS011;37709;53.480;9.688;2022-08-25T01:04:42;5.80;;;5.17;;
2406;SDS011;37709;53.480;9.688;2022-08-25T01:07:16;5.50;;;5.00;;
2406;SDS011;37709;53.480;9.688;2022-08-25T01:09:45;7.00;;;5.70;;
2406;SDS011;37709;53.480;9.688;2022-08-25T01:12:15;5.63;;;5.13;;
2406;SDS011;37709;53.480;9.688;2022-08-25T01:14:43;5.87;;;5.30;;
2406;SDS011;37709;53.480;9.688;2022-08-25T01:17:13;5.00;;;4.60;;
2406;SDS011;37709;53.480;9.688;2022-08-25T01:19:41;6.50;;;6.00;;
2406;SDS011;37709;53.480;9.688;2022-08-25T01:22:08;6.10;;;5.47;;
2406;SDS011;37709;53.480;9.688;2022-08-25T01:24:51;6.73;;;5.50;;
2406;SDS011;37709;53.480;9.688;2022-08-25T01:27:25;6.50;;;5.90;;
2406;SDS011;37709;53.480;9.688;2022-08-25T01:29:53;6.53;;;5.93;;
2406;SDS011;37709;53.480;9.688;2022-08-25T01:32:20;6.30;;;5.70;;
2406;SDS011;37709;53.480;9.688;2022-08-25T01:34:48;8.27;;;6.03;;
2406;SDS011;37709;53.480;9.688;2022-08-25T01:37:17;6.30;;;5.70;;
2406;SDS011;37709;53.480;9.688;2022-08-25T01:39:46;6.50;;;5.90;;
2406;SDS011;37709;53.480;9.688;2022-08-25T01:42:18;7.00;;;6.40;;
2406;SDS011;37709;53.480;9.688;2022-08-25T01:44:54;7.10;;;6.50;;
2406;SDS011;37709;53.480;9.688;2022-08-25T01:47:23;7.03;;;6.43;;
2406;SDS011;37709;53.480;9.688;2022-08-25T01:49:51;7.10;;;6.50;;
2406;SDS011;37709;53.480;9.688;2022-08-25T01:52:31;7.57;;;6.40;;
2406;SDS011;37709;53.480;9.688;2022-08-25T01:55:03;6.80;;;6.13;;
2406;SDS011;37709;53.480;9.688;2022-08-25T01:57:31;7.57;;;6.83;;
2406;SDS011;37709;53.480;9.688;2022-08-25T01:59:58;7.00;;;6.50;;
2406;SDS011;37709;53.480;9.688;2022-08-25T02:02:37;9.17;;;6.57;;
2406;SDS011;37709;53.480;9.688;2022-08-25T02:05:09;7.87;;;6.90;;
2406;SDS011;37709;53.480;9.688;2022-08-25T02:07:39;8.17;;;7.43;;
2406;SDS011;37709;53.480;9.688;2022-08-25T02:10:09;8.67;;;7.70;;
2406;SDS011;37709;53.480;9.688;2022-08-25T02:12:37;6.93;;;6.27;;
2406;SDS011;37709;53.480;9.688;2022-08-25T02:15:05;7.37;;;6.67;;
2406;SDS011;37709;53.480;9.688;2022-08-25T02:17:34;9.67;;;6.80;;
2406;SDS011;37709;53.480;9.688;2022-08-25T02:20:05;8.00;;;7.30;;
2406;SDS011;37709;53.480;9.688;2022-08-25T02:22:35;7.10;;;6.40;;
2406;SDS011;37709;53.480;9.688;2022-08-25T02:25:03;7.27;;;6.73;;
2406;SDS011;37709;53.480;9.688;2022-08-25T02:27:32;7.67;;;7.07;;
2406;SDS011;37709;53.480;9.688;2022-08-25T02:30:03;8.23;;;7.43;;
2406;SDS011;37709;53.480;9.688;2022-08-25T02:32:31;9.30;;;7.63;;
2406;SDS011;37709;53.480;9.688;2022-08-25T02:34:58;8.47;;;7.53;;
2406;SDS011;37709;53.480;9.688;2022-08-25T02:37:26;8.27;;;7.50;;
2406;SDS011;37709;53.480;9.688;2022-08-25T02:39:53;7.53;;;6.80;;
2406;SDS011;37709;53.480;9.688;2022-08-25T02:42:21;8.10;;;7.30;;
2406;SDS011;37709;53.480;9.688;2022-08-25T02:44:50;7.90;;;7.20;;
2406;SDS011;37709;53.480;9.688;2022-08-25T02:47:18;8.03;;;7.20;;
2406;SDS011;37709;53.480;9.688;2022-08-25T02:49:53;7.20;;;6.60;;
2406;SDS011;37709;53.480;9.688;2022-08-25T02:52:21;8.50;;;7.80;;
2406;SDS011;37709;53.480;9.688;2022-08-25T02:54:49;9.40;;;7.80;;
2406;SDS011;37709;53.480;9.688;2022-08-25T02:57:16;8.73;;;7.90;;
2406;SDS011;37709;53.480;9.688;2022-08-25T02:59:44;8.43;;;7.63;;
2406;SDS011;37709;53.480;9.688;2022-08-25T03:02:14;9.60;;;7.53;;
2406;SDS011;37709;53.480;9.688;2022-08-25T03:04:42;11.27;;;8.30;;
2406;SDS011;37709;53.480;9.688;2022-08-25T03:07:10;8.90;;;7.80;;
2406;SDS011;37709;53.480;9.688;2022-08-25T03:09:38;9.37;;;8.00;;
2406;SDS011;37709;53.480;9.688;2022-08-25T03:12:05;8.83;;;8.00;;
2406;SDS011;37709;53.480;9.688;2022-08-25T03:14:34;9.67;;;8.47;;
2406;SDS011;37709;53.480;9.688;2022-08-25T03:17:02;9.27;;;8.20;;
2406;SDS011;37709;53.480;9.688;2022-08-25T03:19:34;9.90;;;8.63;;
2406;SDS011;37709;53.480;9.688;2022-08-25T03:22:02;8.87;;;8.00;;
2406;SDS011;37709;53.480;9.688;2022-08-25T03:24:29;8.93;;;8.13;;
2406;SDS011;37709;53.480;9.688;2022-08-25T03:26:57;10.13;;;8.80;;
2406;SDS011;37709;53.480;9.688;2022-08-25T03:29:25;9.07;;;8.27;;
2406;SDS011;37709;53.480;9.688;2022-08-25T03:31:58;12.47;;;8.73;;
2406;SDS011;37709;53.480;9.688;2022-08-25T03:34:28;10.40;;;8.67;;
2406;SDS011;37709;53.480;9.688;2022-08-25T03:36:56;9.30;;;8.47;;
2406;SDS011;37709;53.480;9.688;2022-08-25T03:39:25;9.27;;;8.47;;
2406;SDS011;37709;53.480;9.688;2022-08-25T03:41:53;9.77;;;8.87;;
2406;SDS011;37709;53.480;9.688;2022-08-25T03:44:20;10.83;;;8.30;;
2406;SDS011;37709;53.480;9.688;2022-08-25T03:46:49;11.10;;;9.23;;
2406;SDS011;37709;53.480;9.688;2022-08-25T03:49:19;9.47;;;8.57;;
2406;SDS011;37709;53.480;9.688;2022-08-25T03:51:52;9.63;;;8.73;;
2406;SDS011;37709;53.480;9.688;2022-08-25T03:54:22;9.73;;;8.63;;
2406;SDS011;37709;53.480;9.688;2022-08-25T03:56:50;10.50;;;9.60;;
2406;SDS011;37709;53.480;9.688;2022-08-25T03:59:18;10.53;;;9.60;;
2406;SDS011;37709;53.480;9.688;2022-08-25T04:01:46;10.30;;;9.30;;
2406;SDS011;37709;53.480;9.688;2022-08-25T04:04:20;8.67;;;7.70;;
2406;SDS011;37709;53.480;9.688;2022-08-25T04:06:48;11.97;;;9.43;;
2406;SDS011;37709;53.480;9.688;2022-08-25T04:09:16;10.10;;;8.90;;
2406;SDS011;37709;53.480;9.688;2022-08-25T04:11:44;10.13;;;9.23;;
2406;SDS011;37709;53.480;9.688;2022-08-25T04:14:11;10.70;;;9.70;;
2406;SDS011;37709;53.480;9.688;2022-08-25T04:16:42;9.27;;;8.20;;
2406;SDS011;37709;53.480;9.688;2022-08-25T04:19:11;11.17;;;8.60;;
2406;SDS011;37709;53.480;9.688;2022-08-25T04:21:39;8.40;;;7.70;;
2406;SDS011;37709;53.480;9.688;2022-08-25T04:24:08;9.00;;;7.40;;
2406;SDS011;37709;53.480;9.688;2022-08-25T04:26:39;9.17;;;7.60;;
2406;SDS011;37709;53.480;9.688;2022-08-25T04:29:09;8.33;;;7.47;;
2406;SDS011;37709;53.480;9.688;2022-08-25T04:31:39;9.17;;;8.47;;
2406;SDS011;37709;53.480;9.688;2022-08-25T04:34:09;8.40;;;7.57;;
2406;SDS011;37709;53.480;9.688;2022-08-25T04:36:58;9.80;;;8.80;;
2406;SDS011;37709;53.480;9.688;2022-08-25T04:39:27;10.63;;;9.03;;
2406;SDS011;37709;53.480;9.688;2022-08-25T04:41:55;9.80;;;8.67;;
2406;SDS011;37709;53.480;9.688;2022-08-25T04:44:23;11.93;;;10.57;;
2406;SDS011;37709;53.480;9.688;2022-08-25T04:46:51;10.77;;;9.80;;
2406;SDS011;37709;53.480;9.688;2022-08-25T04:52:14;9.83;;;8.83;;
2406;SDS011;37709;53.480;9.688;2022-08-25T04:54:41;11.53;;;10.37;;
2406;SDS011;37709;53.480;9.688;2022-08-25T04:57:10;12.23;;;10.90;;
2406;SDS011;37709;53.480;9.688;2022-08-25T04:59:38;13.00;;;11.70;;
2406;SDS011;37709;53.480;9.688;2022-08-25T05:02:05;11.93;;;10.90;;
2406;SDS011;37709;53.480;9.688;2022-08-25T05:04:33;11.17;;;9.87;;
2406;SDS011;37709;53.480;9.688;2022-08-25T05:07:02;11.77;;;10.63;;
2406;SDS011;37709;53.480;9.688;2022-08-25T05:09:30;12.63;;;11.27;;
2406;SDS011;37709;53.480;9.688;2022-08-25T05:12:01;11.93;;;10.73;;
2406;SDS011;37709;53.480;9.688;2022-08-25T05:14:30;12.03;;;10.90;;
2406;SDS011;37709;53.480;9.688;2022-08-25T05:17:01;13.57;;;10.77;;
2406;SDS011;37709;53.480;9.688;2022-08-25T05:19:29;11.70;;;10.47;;
2406;SDS011;37709;53.480;9.688;2022-08-25T05:21:56;13.00;;;11.33;;
2406;SDS011;37709;53.480;9.688;2022-08-25T05:24:26;12.10;;;10.90;;
2406;SDS011;37709;53.480;9.688;2022-08-25T05:26:54;13.17;;;10.73;;
2406;SDS011;37709;53.480;9.688;2022-08-25T05:29:21;10.80;;;9.80;;
2406;SDS011;37709;53.480;9.688;2022-08-25T05:31:49;13.67;;;10.83;;
2406;SDS011;37709;53.480;9.688;2022-08-25T05:34:17;12.40;;;11.20;;
2406;SDS011;37709;53.480;9.688;2022-08-25T05:36:46;13.47;;;10.93;;
2406;SDS011;37709;53.480;9.688;2022-08-25T05:39:14;11.60;;;10.50;;
2406;SDS011;37709;53.480;9.688;2022-08-25T05:41:42;12.47;;;10.67;;
2406;SDS011;37709;53.480;9.688;2022-08-25T05:44:10;11.90;;;10.70;;
2406;SDS011;37709;53.480;9.688;2022-08-25T05:46:42;10.53;;;9.50;;
2406;SDS011;37709;53.480;9.688;2022-08-25T05:49:10;10.43;;;9.43;;
2406;SDS011;37709;53.480;9.688;2022-08-25T05:51:38;10.53;;;9.50;;
2406;SDS011;37709;53.480;9.688;2022-08-25T05:54:06;10.23;;;9.23;;
2406;SDS011;37709;53.480;9.688;2022-08-25T05:59:27;10.23;;;9.23;;
2406;SDS011;37709;53.480;9.688;2022-08-25T06:01:56;11.17;;;9.13;;
2406;SDS011;37709;53.480;9.688;2022-08-25T06:04:59;9.40;;;8.60;;
2406;SDS011;37709;53.480;9.688;2022-08-25T06:07:26;11.00;;;9.00;;
2406;SDS011;37709;53.480;9.688;2022-08-25T06:09:54;9.17;;;8.37;;
2406;SDS011;37709;53.480;9.688;2022-08-25T06:12:21;9.20;;;8.30;;
2406;SDS011;37709;53.480;9.688;2022-08-25T06:14:49;8.87;;;8.17;;
2406;SDS011;37709;53.480;9.688;2022-08-25T06:17:17;9.03;;;8.23;;
2406;SDS011;37709;53.480;9.688;2022-08-25T06:19:44;9.40;;;8.60;;
2406;SDS011;37709;53.480;9.688;2022-08-25T06:22:12;10.10;;;8.53;;
2406;SDS011;37709;53.480;9.688;2022-08-25T06:24:44;9.43;;;8.60;;
2406;SDS011;37709;53.480;9.688;2022-08-25T06:27:11;8.93;;;7.87;;
2406;SDS011;37709;53.480;9.688;2022-08-25T06:29:38;8.53;;;7.83;;
2406;SDS011;37709;53.480;9.688;2022-08-25T06:32:07;8.23;;;7.43;;
2406;SDS011;37709;53.480;9.688;2022-08-25T06:34:35;7.90;;;7.20;;
2406;SDS011;37709;53.480;9.688;2022-08-25T06:37:02;10.17;;;7.10;;
2406;SDS011;37709;53.480;9.688;2022-08-25T06:39:29;8.40;;;7.60;;
2406;SDS011;37709;53.480;9.688;2022-08-25T06:41:57;9.80;;;6.63;;
2406;SDS011;37709;53.480;9.688;2022-08-25T06:44:25;7.40;;;6.70;;
2406;SDS011;37709;53.480;9.688;2022-08-25T06:46:53;7.63;;;6.87;;
2406;SDS011;37709;53.480;9.688;2022-08-25T06:49:27;7.80;;;6.80;;
2406;SDS011;37709;53.480;9.688;2022-08-25T06:51:58;7.53;;;6.50;;
2406;SDS011;37709;53.480;9.688;2022-08-25T06:54:26;7.87;;;6.90;;
2406;SDS011;37709;53.480;9.688;2022-08-25T06:56:53;7.10;;;6.50;;
2406;SDS011;37709;53.480;9.688;2022-08-25T06:59:21;7.60;;;6.73;;
2406;SDS011;37709;53.480;9.688;2022-08-25T07:01:48;8.53;;;6.70;;
2406;SDS011;37709;53.480;9.688;2022-08-25T07:04:18;7.33;;;6.73;;
2406;SDS011;37709;53.480;9.688;2022-08-25T07:06:46;7.47;;;6.50;;
2406;SDS011;37709;53.480;9.688;2022-08-25T07:09:14;6.67;;;6.07;;
2406;SDS011;37709;53.480;9.688;2022-08-25T07:11:42;6.67;;;6.17;;
2406;SDS011;37709;53.480;9.688;2022-08-25T07:14:11;8.30;;;7.50;;
2406;SDS011;37709;53.480;9.688;2022-08-25T07:16:42;6.90;;;6.23;;
2406;SDS011;37709;53.480;9.688;2022-08-25T07:19:15;7.83;;;7.03;;
2406;SDS011;37709;53.480;9.688;2022-08-25T07:21:47;7.23;;;6.60;;
2406;SDS011;37709;53.480;9.688;2022-08-25T07:24:17;7.60;;;7.00;;
2406;SDS011;37709;53.480;9.688;2022-08-25T07:26:45;7.77;;;6.93;;
2406;SDS011;37709;53.480;9.688;2022-08-25T07:29:13;6.80;;;6.30;;
2406;SDS011;37709;53.480;9.688;2022-08-25T07:31:59;8.40;;;7.03;;
2406;SDS011;37709;53.480;9.688;2022-08-25T07:34:27;8.30;;;7.60;;
2406;SDS011;37709;53.480;9.688;2022-08-25T07:37:19;9.27;;;8.47;;
2406;SDS011;37709;53.480;9.688;2022-08-25T07:40:09;9.83;;;8.93;;
2406;SDS011;37709;53.480;9.688;2022-08-25T07:42:50;9.73;;;8.77;;
2406;SDS011;37709;53.480;9.688;2022-08-25T07:45:21;9.53;;;8.53;;
2406;SDS011;37709;53.480;9.688;2022-08-25T07:47:56;9.03;;;8.23;;
2406;SDS011;37709;53.480;9.688;2022-08-25T07:50:28;9.80;;;8.90;;
2406;SDS011;37709;53.480;9.688;2022-08-25T07:52:57;10.00;;;9.20;;
2406;SDS011;37709;53.480;9.688;2022-08-25T07:55:26;10.77;;;9.67;;
2406;SDS011;37709;53.480;9.688;2022-08-25T07:57:54;9.70;;;8.90;;
2406;SDS011;37709;53.480;9.688;2022-08-25T08:00:23;10.90;;;10.00;;
2406;SDS011;37709;53.480;9.688;2022-08-25T08:02:54;12.90;;;11.90;;
2406;SDS011;37709;53.480;9.688;2022-08-25T08:05:23;13.13;;;11.90;;
2406;SDS011;37709;53.480;9.688;2022-08-25T08:07:51;14.47;;;12.97;;
2406;SDS011;37709;53.480;9.688;2022-08-25T08:10:19;13.93;;;12.63;;
2406;SDS011;37709;53.480;9.688;2022-08-25T08:13:09;13.07;;;12.07;;
2406;SDS011;37709;53.480;9.688;2022-08-25T08:15:43;13.93;;;12.60;;
2406;SDS011;37709;53.480;9.688;2022-08-25T08:18:13;12.63;;;11.53;;
2406;SDS011;37709;53.480;9.688;2022-08-25T08:20:42;13.07;;;11.87;;
2406;SDS011;37709;53.480;9.688;2022-08-25T08:23:14;11.47;;;10.50;;
2406;SDS011;37709;53.480;9.688;2022-08-25T08:25:43;12.73;;;11.63;;
2406;SDS011;37709;53.480;9.688;2022-08-25T08:28:11;11.23;;;10.30;;
2406;SDS011;37709;53.480;9.688;2022-08-25T08:30:39;11.53;;;10.43;;
2406;SDS011;37709;53.480;9.688;2022-08-25T08:33:20;10.80;;;9.90;;
2406;SDS011;37709;53.480;9.688;2022-08-25T08:38:51;10.63;;;9.63;;
2406;SDS011;37709;53.480;9.688;2022-08-25T08:55:48;8.00;;;7.40;;
2406;SDS011;37709;53.480;9.688;2022-08-25T08:58:20;10.40;;;8.47;;
2406;SDS011;37709;53.480;9.688;2022-08-25T09:01:11;7.70;;;7.00;;
2406;SDS011;37709;53.480;9.688;2022-08-25T09:03:46;8.90;;;8.03;;
2406;SDS011;37709;53.480;9.688;2022-08-25T09:06:23;6.87;;;6.17;;
2406;SDS011;37709;53.480;9.688;2022-08-25T09:09:01;9.40;;;8.57;;
2406;SDS011;37709;53.480;9.688;2022-08-25T09:17:40;9.13;;;7.67;;
2406;SDS011;37709;53.480;9.688;2022-08-25T09:20:45;7.73;;;7.03;;
2406;SDS011;37709;53.480;9.688;2022-08-25T09:31:15;7.80;;;7.10;;
2406;SDS011;37709;53.480;9.688;2022-08-25T09:33:59;9.20;;;7.63;;
2406;SDS011;37709;53.480;9.688;2022-08-25T09:36:30;9.07;;;8.17;;
2406;SDS011;37709;53.480;9.688;2022-08-25T09:39:04;8.10;;;7.50;;
2406;SDS011;37709;53.480;9.688;2022-08-25T09:44:18;10.43;;;7.00;;
2406;SDS011;37709;53.480;9.688;2022-08-25T09:46:57;8.80;;;8.10;;
2406;SDS011;37709;53.480;9.688;2022-08-25T09:49:39;8.23;;;7.53;;
2406;SDS011;37709;53.480;9.688;2022-08-25T09:52:23;8.97;;;7.30;;
2406;SDS011;37709;53.480;9.688;2022-08-25T10:02:59;7.33;;;6.63;;
2406;SDS011;37709;53.480;9.688;2022-08-25T10:05:32;6.30;;;5.43;;
2406;SDS011;37709;53.480;9.688;2022-08-25T10:08:12;6.77;;;6.07;;
2406;SDS011;37709;53.480;9.688;2022-08-25T10:10:54;7.53;;;5.40;;
2406;SDS011;37709;53.480;9.688;2022-08-25T10:13:32;6.37;;;5.83;;
2406;SDS011;37709;53.480;9.688;2022-08-25T10:16:04;7.30;;;5.50;;
2406;SDS011;37709;53.480;9.688;2022-08-25T10:19:04;6.43;;;5.30;;
2406;SDS011;37709;53.480;9.688;2022-08-25T10:21:37;6.90;;;6.20;;
2406;SDS011;37709;53.480;9.688;2022-08-25T10:24:10;5.83;;;5.23;;
2406;SDS011;37709;53.480;9.688;2022-08-25T10:26:42;5.67;;;5.17;;
2406;SDS011;37709;53.480;9.688;2022-08-25T10:38:22;6.23;;;5.63;;
2406;SDS011;37709;53.480;9.688;2022-08-25T10:41:00;6.70;;;5.10;;
2406;SDS011;37709;53.480;9.688;2022-08-25T10:43:56;5.43;;;4.73;;
2406;SDS011;37709;53.480;9.688;2022-08-25T10:47:02;5.90;;;5.40;;
2406;SDS011;37709;53.480;9.688;2022-08-25T10:55:50;5.10;;;4.70;;
2406;SDS011;37709;53.480;9.688;2022-08-25T11:07:10;5.87;;;4.10;;
2406;SDS011;37709;53.480;9.688;2022-08-25T11:09:44;5.57;;;4.57;;
2406;SDS011;37709;53.480;9.688;2022-08-25T11:15:16;5.50;;;5.10;;
2406;SDS011;37709;53.480;9.688;2022-08-25T11:17:57;5.67;;;5.13;;
2406;SDS011;37709;53.480;9.688;2022-08-25T11:23:27;5.93;;;5.13;;
2406;SDS011;37709;53.480;9.688;2022-08-25T11:26:11;7.03;;;4.80;;
2406;SDS011;37709;53.480;9.688;2022-08-25T11:28:56;4.87;;;4.47;;
2406;SDS011;37709;53.480;9.688;2022-08-25T11:31:48;9.03;;;5.50;;
2406;SDS011;37709;53.480;9.688;2022-08-25T11:34:20;5.50;;;4.40;;
2406;SDS011;37709;53.480;9.688;2022-08-25T11:39:36;5.40;;;4.90;;
2406;SDS011;37709;53.480;9.688;2022-08-25T11:45:05;5.47;;;5.00;;
2406;SDS011;37709;53.480;9.688;2022-08-25T11:50:25;5.20;;;4.80;;
2406;SDS011;37709;53.480;9.688;2022-08-25T11:53:24;6.67;;;4.90;;
2406;SDS011;37709;53.480;9.688;2022-08-25T11:56:04;4.53;;;4.20;;
2406;SDS011;37709;53.480;9.688;2022-08-25T11:58:43;5.20;;;4.77;;
2406;SDS011;37709;53.480;9.688;2022-08-25T12:08:11;5.90;;;3.87;;
2406;SDS011;37709;53.480;9.688;2022-08-25T12:10:14;5.03;;;4.60;;
2406;SDS011;37709;53.480;9.688;2022-08-25T12:26:32;4.77;;;4.07;;
2406;SDS011;37709;53.480;9.688;2022-08-25T12:35:16;3.60;;;3.30;;
2406;SDS011;37709;53.480;9.688;2022-08-25T12:38:11;3.63;;;3.43;;
2406;SDS011;37709;53.480;9.688;2022-08-25T12:49:28;3.97;;;3.67;;
2406;SDS011;37709;53.480;9.688;2022-08-25T12:52:15;4.47;;;4.10;;
2406;SDS011;37709;53.480;9.688;2022-08-25T13:00:23;5.37;;;4.40;;
2406;SDS011;37709;53.480;9.688;2022-08-25T13:14:40;4.27;;;3.97;;
2406;SDS011;37709;53.480;9.688;2022-08-25T13:17:09;3.80;;;3.50;;
2406;SDS011;37709;53.480;9.688;2022-08-25T13:19:37;4.07;;;3.77;;
2406;SDS011;37709;53.480;9.688;2022-08-25T13:22:13;3.70;;;3.40;;
2406;SDS011;37709;53.480;9.688;2022-08-25T13:24:44;3.97;;;3.20;;
2406;SDS011;37709;53.480;9.688;2022-08-25T13:27:19;4.30;;;3.63;;
2406;SDS011;37709;53.480;9.688;2022-08-25T13:29:55;4.40;;;3.87;;
2406;SDS011;37709;53.480;9.688;2022-08-25T13:32:31;4.07;;;3.67;;
2406;SDS011;37709;53.480;9.688;2022-08-25T13:35:16;3.90;;;3.50;;
2406;SDS011;37709;53.480;9.688;2022-08-25T13:37:52;3.90;;;3.60;;
2406;SDS011;37709;53.480;9.688;2022-08-25T13:40:25;5.33;;;3.93;;
2406;SDS011;37709;53.480;9.688;2022-08-25T13:42:59;3.97;;;3.57;;
2406;SDS011;37709;53.480;9.688;2022-08-25T13:45:31;4.83;;;3.20;;
2406;SDS011;37709;53.480;9.688;2022-08-25T13:48:08;3.97;;;3.67;;
2406;SDS011;37709;53.480;9.688;2022-08-25T13:50:47;4.60;;;3.70;;
2406;SDS011;37709;53.480;9.688;2022-08-25T13:53:22;9.93;;;3.63;;
2406;SDS011;37709;53.480;9.688;2022-08-25T13:55:56;3.23;;;2.93;;
2406;SDS011;37709;53.480;9.688;2022-08-25T13:58:26;3.90;;;3.60;;
2406;SDS011;37709;53.480;9.688;2022-08-25T14:07:11;4.10;;;3.70;;
2406;SDS011;37709;53.480;9.688;2022-08-25T14:09:50;3.80;;;3.50;;
2406;SDS011;37709;53.480;9.688;2022-08-25T14:12:31;4.10;;;3.70;;
2406;SDS011;37709;53.480;9.688;2022-08-25T14:15:11;6.97;;;3.37;;
2406;SDS011;37709;53.480;9.688;2022-08-25T14:17:46;7.23;;;3.50;;
2406;SDS011;37709;53.480;9.688;2022-08-25T14:20:27;4.10;;;3.70;;
2406;SDS011;37709;53.480;9.688;2022-08-25T14:23:03;4.97;;;3.93;;
2406;SDS011;37709;53.480;9.688;2022-08-25T14:25:42;4.47;;;3.93;;
2406;SDS011;37709;53.480;9.688;2022-08-25T14:28:14;4.50;;;4.10;;
2406;SDS011;37709;53.480;9.688;2022-08-25T14:30:45;5.63;;;3.70;;
2406;SDS011;37709;53.480;9.688;2022-08-25T14:33:20;5.33;;;4.30;;
2406;SDS011;37709;53.480;9.688;2022-08-25T14:35:54;5.40;;;3.57;;
2406;SDS011;37709;53.480;9.688;2022-08-25T14:38:24;4.83;;;4.43;;
2406;SDS011;37709;53.480;9.688;2022-08-25T14:40:53;5.30;;;3.93;;
2406;SDS011;37709;53.480;9.688;2022-08-25T14:43:30;6.57;;;4.17;;
2406;SDS011;37709;53.480;9.688;2022-08-25T14:45:59;4.60;;;3.90;;
2406;SDS011;37709;53.480;9.688;2022-08-25T14:48:30;4.27;;;3.87;;
2406;SDS011;37709;53.480;9.688;2022-08-25T14:51:02;5.03;;;4.57;;
2406;SDS011;37709;53.480;9.688;2022-08-25T14:53:31;5.00;;;4.50;;
2406;SDS011;37709;53.480;9.688;2022-08-25T14:55:59;4.27;;;3.50;;
2406;SDS011;37709;53.480;9.688;2022-08-25T14:58:38;4.93;;;4.47;;
2406;SDS011;37709;53.480;9.688;2022-08-25T15:01:20;4.00;;;3.70;;
2406;SDS011;37709;53.480;9.688;2022-08-25T15:06:42;4.17;;;3.60;;
2406;SDS011;37709;53.480;9.688;2022-08-25T15:09:12;4.03;;;3.63;;
2406;SDS011;37709;53.480;9.688;2022-08-25T15:11:46;4.20;;;3.80;;
2406;SDS011;37709;53.480;9.688;2022-08-25T15:14:17;4.37;;;3.63;;
2406;SDS011;37709;53.480;9.688;2022-08-25T15:17:03;5.70;;;4.10;;
2406;SDS011;37709;53.480;9.688;2022-08-25T15:19:33;4.20;;;3.80;;
2406;SDS011;37709;53.480;9.688;2022-08-25T15:22:01;4.63;;;4.23;;
2406;SDS011;37709;53.480;9.688;2022-08-25T15:24:28;5.53;;;3.83;;
2406;SDS011;37709;53.480;9.688;2022-08-25T15:26:59;3.50;;;3.30;;
2406;SDS011;37709;53.480;9.688;2022-08-25T15:29:32;5.67;;;4.70;;
2406;SDS011;37709;53.480;9.688;2022-08-25T15:32:02;4.10;;;3.70;;
2406;SDS011;37709;53.480;9.688;2022-08-25T15:34:33;4.27;;;3.97;;
2406;SDS011;37709;53.480;9.688;2022-08-25T15:37:08;4.30;;;3.50;;
2406;SDS011;37709;53.480;9.688;2022-08-25T15:39:39;3.37;;;3.07;;
2406;SDS011;37709;53.480;9.688;2022-08-25T15:42:10;3.70;;;3.40;;
2406;SDS011;37709;53.480;9.688;2022-08-25T15:44:38;4.10;;;3.80;;
2406;SDS011;37709;53.480;9.688;2022-08-25T15:47:07;5.73;;;4.00;;
2406;SDS011;37709;53.480;9.688;2022-08-25T15:49:38;3.57;;;3.10;;
2406;SDS011;37709;53.480;9.688;2022-08-25T15:52:05;4.27;;;3.97;;
2406;SDS011;37709;53.480;9.688;2022-08-25T15:54:33;4.67;;;3.90;;
2406;SDS011;37709;53.480;9.688;2022-08-25T15:57:02;4.00;;;3.70;;
2406;SDS011;37709;53.480;9.688;2022-08-25T15:59:39;4.30;;;3.73;;
2406;SDS011;37709;53.480;9.688;2022-08-25T16:02:07;5.00;;;3.27;;
2406;SDS011;37709;53.480;9.688;2022-08-25T16:04:42;7.80;;;3.83;;
2406;SDS011;37709;53.480;9.688;2022-08-25T16:07:09;3.73;;;3.30;;
2406;SDS011;37709;53.480;9.688;2022-08-25T16:09:39;5.10;;;3.57;;
2406;SDS011;37709;53.480;9.688;2022-08-25T16:12:07;7.67;;;3.97;;
2406;SDS011;37709;53.480;9.688;2022-08-25T16:14:36;3.77;;;3.43;;
2406;SDS011;37709;53.480;9.688;2022-08-25T16:17:04;5.13;;;4.13;;
2406;SDS011;37709;53.480;9.688;2022-08-25T16:19:33;5.50;;;3.97;;
2406;SDS011;37709;53.480;9.688;2022-08-25T16:22:04;3.90;;;3.60;;
2406;SDS011;37709;53.480;9.688;2022-08-25T16:24:39;4.17;;;3.63;;
2406;SDS011;37709;53.480;9.688;2022-08-25T16:27:07;4.33;;;3.47;;
2406;SDS011;37709;53.480;9.688;2022-08-25T16:29:40;5.70;;;4.07;;
2406;SDS011;37709;53.480;9.688;2022-08-25T16:32:10;4.73;;;3.50;;
2406;SDS011;37709;53.480;9.688;2022-08-25T16:34:39;5.93;;;3.90;;
2406;SDS011;37709;53.480;9.688;2022-08-25T16:37:07;5.00;;;3.80;;
2406;SDS011;37709;53.480;9.688;2022-08-25T16:39:35;4.43;;;4.03;;
2406;SDS011;37709;53.480;9.688;2022-08-25T16:42:07;3.80;;;3.60;;
2406;SDS011;37709;53.480;9.688;2022-08-25T16:44:34;5.50;;;4.43;;
2406;SDS011;37709;53.480;9.688;2022-08-25T16:47:04;4.70;;;3.70;;
2406;SDS011;37709;53.480;9.688;2022-08-25T16:49:35;5.60;;;3.83;;
2406;SDS011;37709;53.480;9.688;2022-08-25T16:52:03;4.70;;;4.07;;
2406;SDS011;37709;53.480;9.688;2022-08-25T16:54:55;4.63;;;4.23;;
2406;SDS011;37709;53.480;9.688;2022-08-25T16:57:38;4.30;;;4.00;;
2406;SDS011;37709;53.480;9.688;2022-08-25T17:00:09;8.50;;;3.90;;
2406;SDS011;37709;53.480;9.688;2022-08-25T17:02:42;3.93;;;3.43;;
2406;SDS011;37709;53.480;9.688;2022-08-25T17:05:11;3.83;;;3.57;;
2406;SDS011;37709;53.480;9.688;2022-08-25T17:07:38;5.60;;;4.30;;
2406;SDS011;37709;53.480;9.688;2022-08-25T17:10:06;4.10;;;3.67;;
2406;SDS011;37709;53.480;9.688;2022-08-25T17:12:38;4.10;;;3.80;;
2406;SDS011;37709;53.480;9.688;2022-08-25T17:15:06;6.87;;;4.13;;
2406;SDS011;37709;53.480;9.688;2022-08-25T17:17:34;7.67;;;4.30;;
2406;SDS011;37709;53.480;9.688;2022-08-25T17:20:04;5.83;;;3.40;;
2406;SDS011;37709;53.480;9.688;2022-08-25T17:22:32;8.80;;;3.60;;
2406;SDS011;37709;53.480;9.688;2022-08-25T17:25:00;5.67;;;3.77;;
2406;SDS011;37709;53.480;9.688;2022-08-25T17:27:33;5.53;;;3.73;;
2406;SDS011;37709;53.480;9.688;2022-08-25T17:30:00;5.07;;;3.40;;
2406;SDS011;37709;53.480;9.688;2022-08-25T17:32:28;5.57;;;4.30;;
2406;SDS011;37709;53.480;9.688;2022-08-25T17:34:57;5.40;;;4.00;;
2406;SDS011;37709;53.480;9.688;2022-08-25T17:37:25;5.20;;;3.90;;
2406;SDS011;37709;53.480;9.688;2022-08-25T17:39:53;4.20;;;3.50;;
2406;SDS011;37709;53.480;9.688;2022-08-25T17:42:29;5.60;;;4.13;;
2406;SDS011;37709;53.480;9.688;2022-08-25T17:44:58;4.60;;;4.20;;
2406;SDS011;37709;53.480;9.688;2022-08-25T17:47:26;4.60;;;4.10;;
2406;SDS011;37709;53.480;9.688;2022-08-25T17:49:53;6.03;;;4.30;;
2406;SDS011;37709;53.480;9.688;2022-08-25T17:52:21;4.30;;;3.90;;
2406;SDS011;37709;53.480;9.688;2022-08-25T17:54:52;5.13;;;4.47;;